sensor_id;sensor_type;location;lat;lon;timestamp;P1;durP1;ratioP1;P2;durP2;ratioP2
10900;SDS011;5503;53.208;10.392;2023-04-06T00:00:51;8.85;;;5.35;;
10900;SDS011;5503;53.208;10.392;2023-04-06T00:03:18;10.32;;;5.40;;
10900;SDS011;5503;53.208;10.392;2023-04-06T00:05:46;9.67;;;5.23;;
10900;SDS011;5503;53.208;10.392;2023-04-06T00:08:13;9.70;;;5.32;;
10900;SDS011;5503;53.208;10.392;2023-04-06T00:10:40;12.45;;;6.07;;
10900;SDS011;5503;53.208;10.392;2023-04-06T00:13:08;9.25;;;5.40;;
10900;SDS011;5503;53.208;10.392;2023-04-06T00:15:37;10.00;;;6.05;;
10900;SDS011;5503;53.208;10.392;2023-04-06T00:18:04;12.50;;;6.30;;
10900;SDS011;5503;53.208;10.392;2023-04-06T00:20:31;11.18;;;5.90;;
10900;SDS011;5503;53.208;10.392;2023-04-06T00:22:58;11.27;;;6.25;;
10900;SDS011;5503;53.208;10.392;2023-04-06T00:25:26;11.18;;;5.75;;
10900;SDS011;5503;53.208;10.392;2023-04-06T00:27:53;11.43;;;6.25;;
10900;SDS011;5503;53.208;10.392;2023-04-06T00:30:20;7.63;;;5.00;;
10900;SDS011;5503;53.208;10.392;2023-04-06T00:32:49;11.10;;;5.50;;
10900;SDS011;5503;53.208;10.392;2023-04-06T00:35:16;9.90;;;5.95;;
10900;SDS011;5503;53.208;10.392;2023-04-06T00:37:45;7.97;;;4.45;;
10900;SDS011;5503;53.208;10.392;2023-04-06T00:40:12;10.10;;;5.47;;
10900;SDS011;5503;53.208;10.392;2023-04-06T00:42:40;8.13;;;5.27;;
10900;SDS011;5503;53.208;10.392;2023-04-06T00:45:08;8.07;;;4.57;;
10900;SDS011;5503;53.208;10.392;2023-04-06T00:47:36;9.82;;;4.38;;
10900;SDS011;5503;53.208;10.392;2023-04-06T00:50:05;8.45;;;4.78;;
10900;SDS011;5503;53.208;10.392;2023-04-06T00:52:33;10.60;;;5.35;;
10900;SDS011;5503;53.208;10.392;2023-04-06T00:55:00;9.23;;;4.93;;
10900;SDS011;5503;53.208;10.392;2023-04-06T00:57:28;8.35;;;4.97;;
10900;SDS011;5503;53.208;10.392;2023-04-06T00:59:55;9.63;;;5.55;;
10900;SDS011;5503;53.208;10.392;2023-04-06T01:02:23;8.00;;;4.60;;
10900;SDS011;5503;53.208;10.392;2023-04-06T01:04:51;9.40;;;5.60;;
10900;SDS011;5503;53.208;10.392;2023-04-06T01:07:20;6.73;;;4.63;;
10900;SDS011;5503;53.208;10.392;2023-04-06T01:09:47;9.15;;;4.93;;
10900;SDS011;5503;53.208;10.392;2023-04-06T01:12:15;8.10;;;5.13;;
10900;SDS011;5503;53.208;10.392;2023-04-06T01:14:42;7.70;;;4.85;;
10900;SDS011;5503;53.208;10.392;2023-04-06T01:17:09;8.02;;;5.30;;
10900;SDS011;5503;53.208;10.392;2023-04-06T01:19:37;9.30;;;4.37;;
10900;SDS011;5503;53.208;10.392;2023-04-06T01:22:05;7.10;;;4.63;;
10900;SDS011;5503;53.208;10.392;2023-04-06T01:24:34;9.40;;;5.20;;
10900;SDS011;5503;53.208;10.392;2023-04-06T01:27:01;7.25;;;4.35;;
10900;SDS011;5503;53.208;10.392;2023-04-06T01:29:28;7.88;;;4.90;;
10900;SDS011;5503;53.208;10.392;2023-04-06T01:31:55;9.07;;;4.73;;
10900;SDS011;5503;53.208;10.392;2023-04-06T01:34:23;11.23;;;4.47;;
10900;SDS011;5503;53.208;10.392;2023-04-06T01:36:50;8.73;;;4.93;;
10900;SDS011;5503;53.208;10.392;2023-04-06T01:39:17;9.35;;;4.65;;
10900;SDS011;5503;53.208;10.392;2023-04-06T01:41:46;7.78;;;4.53;;
10900;SDS011;5503;53.208;10.392;2023-04-06T01:44:16;8.33;;;4.63;;
10900;SDS011;5503;53.208;10.392;2023-04-06T01:46:43;7.53;;;4.53;;
10900;SDS011;5503;53.208;10.392;2023-04-06T01:49:10;9.23;;;5.05;;
10900;SDS011;5503;53.208;10.392;2023-04-06T01:51:38;8.05;;;4.75;;
10900;SDS011;5503;53.208;10.392;2023-04-06T01:54:05;7.88;;;4.72;;
10900;SDS011;5503;53.208;10.392;2023-04-06T01:56:32;8.10;;;4.70;;
10900;SDS011;5503;53.208;10.392;2023-04-06T01:59:01;9.57;;;4.97;;
10900;SDS011;5503;53.208;10.392;2023-04-06T02:01:28;8.80;;;4.70;;
10900;SDS011;5503;53.208;10.392;2023-04-06T02:03:56;10.70;;;4.93;;
10900;SDS011;5503;53.208;10.392;2023-04-06T02:06:23;10.88;;;5.05;;
10900;SDS011;5503;53.208;10.392;2023-04-06T02:08:51;10.07;;;5.10;;
10900;SDS011;5503;53.208;10.392;2023-04-06T02:11:19;7.93;;;4.30;;
10900;SDS011;5503;53.208;10.392;2023-04-06T02:13:46;7.63;;;4.85;;
10900;SDS011;5503;53.208;10.392;2023-04-06T02:16:15;7.90;;;4.40;;
10900;SDS011;5503;53.208;10.392;2023-04-06T02:18:42;13.68;;;5.15;;
10900;SDS011;5503;53.208;10.392;2023-04-06T02:21:09;6.77;;;4.23;;
10900;SDS011;5503;53.208;10.392;2023-04-06T02:23:36;10.02;;;4.70;;
10900;SDS011;5503;53.208;10.392;2023-04-06T02:26:04;12.57;;;5.28;;
10900;SDS011;5503;53.208;10.392;2023-04-06T02:28:31;8.07;;;4.75;;
10900;SDS011;5503;53.208;10.392;2023-04-06T02:30:58;9.60;;;5.20;;
10900;SDS011;5503;53.208;10.392;2023-04-06T02:33:27;10.53;;;5.50;;
10900;SDS011;5503;53.208;10.392;2023-04-06T02:35:54;8.10;;;4.55;;
10900;SDS011;5503;53.208;10.392;2023-04-06T02:38:21;9.25;;;5.07;;
10900;SDS011;5503;53.208;10.392;2023-04-06T02:40:49;9.23;;;5.15;;
10900;SDS011;5503;53.208;10.392;2023-04-06T02:43:16;9.90;;;5.25;;
10900;SDS011;5503;53.208;10.392;2023-04-06T02:45:43;8.07;;;4.90;;
10900;SDS011;5503;53.208;10.392;2023-04-06T02:48:11;9.02;;;5.30;;
10900;SDS011;5503;53.208;10.392;2023-04-06T02:50:39;8.05;;;4.88;;
10900;SDS011;5503;53.208;10.392;2023-04-06T02:53:06;11.15;;;5.70;;
10900;SDS011;5503;53.208;10.392;2023-04-06T02:55:34;10.27;;;5.60;;
10900;SDS011;5503;53.208;10.392;2023-04-06T02:58:01;12.20;;;4.67;;
10900;SDS011;5503;53.208;10.392;2023-04-06T03:00:28;8.73;;;4.95;;
10900;SDS011;5503;53.208;10.392;2023-04-06T03:02:55;10.68;;;5.38;;
10900;SDS011;5503;53.208;10.392;2023-04-06T03:05:23;10.30;;;5.43;;
10900;SDS011;5503;53.208;10.392;2023-04-06T03:07:51;11.13;;;5.40;;
10900;SDS011;5503;53.208;10.392;2023-04-06T03:10:18;8.60;;;4.87;;
10900;SDS011;5503;53.208;10.392;2023-04-06T03:12:46;9.05;;;5.72;;
10900;SDS011;5503;53.208;10.392;2023-04-06T03:15:13;8.50;;;4.50;;
10900;SDS011;5503;53.208;10.392;2023-04-06T03:17:40;7.72;;;4.85;;
10900;SDS011;5503;53.208;10.392;2023-04-06T03:20:08;9.68;;;5.75;;
10900;SDS011;5503;53.208;10.392;2023-04-06T03:22:35;7.27;;;4.37;;
10900;SDS011;5503;53.208;10.392;2023-04-06T03:25:05;10.55;;;4.78;;
10900;SDS011;5503;53.208;10.392;2023-04-06T03:27:32;8.20;;;5.28;;
10900;SDS011;5503;53.208;10.392;2023-04-06T03:29:59;9.15;;;5.57;;
10900;SDS011;5503;53.208;10.392;2023-04-06T03:32:27;7.63;;;4.70;;
10900;SDS011;5503;53.208;10.392;2023-04-06T03:34:54;8.93;;;5.10;;
10900;SDS011;5503;53.208;10.392;2023-04-06T03:37:21;8.65;;;5.25;;
10900;SDS011;5503;53.208;10.392;2023-04-06T03:39:49;9.95;;;6.38;;
10900;SDS011;5503;53.208;10.392;2023-04-06T03:42:17;10.32;;;6.38;;
10900;SDS011;5503;53.208;10.392;2023-04-06T03:44:45;9.80;;;6.13;;
10900;SDS011;5503;53.208;10.392;2023-04-06T03:47:12;11.60;;;6.03;;
10900;SDS011;5503;53.208;10.392;2023-04-06T03:49:39;11.77;;;5.90;;
10900;SDS011;5503;53.208;10.392;2023-04-06T03:52:06;10.25;;;5.68;;
10900;SDS011;5503;53.208;10.392;2023-04-06T03:54:34;10.18;;;5.18;;
10900;SDS011;5503;53.208;10.392;2023-04-06T03:57:01;8.65;;;5.82;;
10900;SDS011;5503;53.208;10.392;2023-04-06T03:59:30;11.77;;;4.27;;
10900;SDS011;5503;53.208;10.392;2023-04-06T04:01:57;10.52;;;7.28;;
10900;SDS011;5503;53.208;10.392;2023-04-06T04:04:24;10.85;;;7.05;;
10900;SDS011;5503;53.208;10.392;2023-04-06T04:06:52;11.00;;;5.88;;
10900;SDS011;5503;53.208;10.392;2023-04-06T04:09:19;9.07;;;6.40;;
10900;SDS011;5503;53.208;10.392;2023-04-06T04:11:46;9.97;;;5.57;;
10900;SDS011;5503;53.208;10.392;2023-04-06T04:14:13;12.15;;;6.35;;
10900;SDS011;5503;53.208;10.392;2023-04-06T04:16:42;10.57;;;6.45;;
10900;SDS011;5503;53.208;10.392;2023-04-06T04:19:09;10.48;;;6.13;;
10900;SDS011;5503;53.208;10.392;2023-04-06T04:21:42;10.20;;;6.80;;
10900;SDS011;5503;53.208;10.392;2023-04-06T04:24:10;10.73;;;6.10;;
10900;SDS011;5503;53.208;10.392;2023-04-06T04:26:38;12.20;;;6.03;;
10900;SDS011;5503;53.208;10.392;2023-04-06T04:29:05;10.52;;;6.53;;
10900;SDS011;5503;53.208;10.392;2023-04-06T04:31:32;12.95;;;6.00;;
10900;SDS011;5503;53.208;10.392;2023-04-06T04:34:01;11.40;;;5.75;;
10900;SDS011;5503;53.208;10.392;2023-04-06T04:36:29;12.83;;;6.90;;
10900;SDS011;5503;53.208;10.392;2023-04-06T04:38:56;11.65;;;6.68;;
10900;SDS011;5503;53.208;10.392;2023-04-06T04:41:23;11.80;;;6.80;;
10900;SDS011;5503;53.208;10.392;2023-04-06T04:43:51;12.02;;;6.88;;
10900;SDS011;5503;53.208;10.392;2023-04-06T04:46:18;11.63;;;6.50;;
10900;SDS011;5503;53.208;10.392;2023-04-06T04:48:45;10.77;;;5.87;;
10900;SDS011;5503;53.208;10.392;2023-04-06T04:51:14;14.73;;;6.47;;
10900;SDS011;5503;53.208;10.392;2023-04-06T04:53:41;10.07;;;6.75;;
10900;SDS011;5503;53.208;10.392;2023-04-06T04:56:09;13.68;;;6.43;;
10900;SDS011;5503;53.208;10.392;2023-04-06T04:58:36;12.73;;;7.70;;
10900;SDS011;5503;53.208;10.392;2023-04-06T05:01:03;14.03;;;8.20;;
10900;SDS011;5503;53.208;10.392;2023-04-06T05:03:31;14.55;;;8.15;;
10900;SDS011;5503;53.208;10.392;2023-04-06T05:05:59;13.90;;;7.43;;
10900;SDS011;5503;53.208;10.392;2023-04-06T05:08:28;13.10;;;8.07;;
10900;SDS011;5503;53.208;10.392;2023-04-06T05:10:55;13.07;;;7.95;;
10900;SDS011;5503;53.208;10.392;2023-04-06T05:13:22;12.57;;;7.10;;
10900;SDS011;5503;53.208;10.392;2023-04-06T05:15:49;11.98;;;7.03;;
10900;SDS011;5503;53.208;10.392;2023-04-06T05:18:17;12.07;;;7.50;;
10900;SDS011;5503;53.208;10.392;2023-04-06T05:20:44;12.45;;;6.45;;
10900;SDS011;5503;53.208;10.392;2023-04-06T05:23:11;14.00;;;8.15;;
10900;SDS011;5503;53.208;10.392;2023-04-06T05:25:40;14.70;;;7.10;;
10900;SDS011;5503;53.208;10.392;2023-04-06T05:28:07;14.77;;;7.13;;
10900;SDS011;5503;53.208;10.392;2023-04-06T05:30:35;16.20;;;8.05;;
10900;SDS011;5503;53.208;10.392;2023-04-06T05:33:02;11.05;;;6.80;;
10900;SDS011;5503;53.208;10.392;2023-04-06T05:35:29;12.63;;;7.10;;
10900;SDS011;5503;53.208;10.392;2023-04-06T05:37:57;13.67;;;6.83;;
10900;SDS011;5503;53.208;10.392;2023-04-06T05:40:24;10.70;;;6.70;;
10900;SDS011;5503;53.208;10.392;2023-04-06T05:42:53;14.68;;;6.65;;
10900;SDS011;5503;53.208;10.392;2023-04-06T05:45:20;13.32;;;7.60;;
10900;SDS011;5503;53.208;10.392;2023-04-06T05:47:47;12.57;;;7.40;;
10900;SDS011;5503;53.208;10.392;2023-04-06T05:50:15;15.23;;;7.57;;
10900;SDS011;5503;53.208;10.392;2023-04-06T05:52:42;11.20;;;7.18;;
10900;SDS011;5503;53.208;10.392;2023-04-06T05:55:11;17.55;;;8.27;;
10900;SDS011;5503;53.208;10.392;2023-04-06T05:57:38;14.23;;;7.85;;
10900;SDS011;5503;53.208;10.392;2023-04-06T06:00:08;13.02;;;7.53;;
10900;SDS011;5503;53.208;10.392;2023-04-06T06:02:36;11.97;;;8.03;;
10900;SDS011;5503;53.208;10.392;2023-04-06T06:05:04;15.77;;;8.05;;
10900;SDS011;5503;53.208;10.392;2023-04-06T06:07:32;14.02;;;8.10;;
10900;SDS011;5503;53.208;10.392;2023-04-06T06:09:59;12.52;;;7.32;;
10900;SDS011;5503;53.208;10.392;2023-04-06T06:12:26;16.35;;;7.43;;
10900;SDS011;5503;53.208;10.392;2023-04-06T06:14:54;13.67;;;7.60;;
10900;SDS011;5503;53.208;10.392;2023-04-06T06:17:23;12.05;;;6.95;;
10900;SDS011;5503;53.208;10.392;2023-04-06T06:19:50;10.35;;;6.43;;
10900;SDS011;5503;53.208;10.392;2023-04-06T06:22:17;12.48;;;7.45;;
10900;SDS011;5503;53.208;10.392;2023-04-06T06:24:45;12.63;;;7.47;;
10900;SDS011;5503;53.208;10.392;2023-04-06T06:27:12;12.97;;;7.17;;
10900;SDS011;5503;53.208;10.392;2023-04-06T06:29:39;13.68;;;7.35;;
10900;SDS011;5503;53.208;10.392;2023-04-06T06:32:07;15.32;;;8.55;;
10900;SDS011;5503;53.208;10.392;2023-04-06T06:34:36;12.98;;;7.97;;
10900;SDS011;5503;53.208;10.392;2023-04-06T06:37:03;10.55;;;5.45;;
10900;SDS011;5503;53.208;10.392;2023-04-06T06:39:31;10.87;;;6.00;;
10900;SDS011;5503;53.208;10.392;2023-04-06T06:41:58;10.13;;;5.72;;
10900;SDS011;5503;53.208;10.392;2023-04-06T06:44:26;11.63;;;6.30;;
10900;SDS011;5503;53.208;10.392;2023-04-06T06:46:53;10.07;;;6.05;;
10900;SDS011;5503;53.208;10.392;2023-04-06T06:49:21;10.38;;;5.05;;
10900;SDS011;5503;53.208;10.392;2023-04-06T06:51:49;11.77;;;5.60;;
10900;SDS011;5503;53.208;10.392;2023-04-06T06:54:16;8.35;;;4.47;;
10900;SDS011;5503;53.208;10.392;2023-04-06T06:56:44;10.88;;;6.50;;
10900;SDS011;5503;53.208;10.392;2023-04-06T06:59:11;9.93;;;5.78;;
10900;SDS011;5503;53.208;10.392;2023-04-06T07:01:38;11.73;;;5.75;;
10900;SDS011;5503;53.208;10.392;2023-04-06T07:04:05;10.23;;;5.17;;
10900;SDS011;5503;53.208;10.392;2023-04-06T07:06:34;10.52;;;6.15;;
10900;SDS011;5503;53.208;10.392;2023-04-06T07:09:03;13.13;;;6.68;;
10900;SDS011;5503;53.208;10.392;2023-04-06T07:11:30;14.15;;;6.28;;
10900;SDS011;5503;53.208;10.392;2023-04-06T07:13:58;10.52;;;5.97;;
10900;SDS011;5503;53.208;10.392;2023-04-06T07:16:25;9.20;;;5.20;;
10900;SDS011;5503;53.208;10.392;2023-04-06T07:18:52;12.55;;;5.68;;
10900;SDS011;5503;53.208;10.392;2023-04-06T07:21:19;8.55;;;4.15;;
10900;SDS011;5503;53.208;10.392;2023-04-06T07:23:46;11.27;;;5.43;;
10900;SDS011;5503;53.208;10.392;2023-04-06T07:26:17;8.57;;;5.40;;
10900;SDS011;5503;53.208;10.392;2023-04-06T07:28:44;7.33;;;3.40;;
10900;SDS011;5503;53.208;10.392;2023-04-06T07:31:11;8.27;;;4.90;;
10900;SDS011;5503;53.208;10.392;2023-04-06T07:33:38;11.30;;;5.93;;
10900;SDS011;5503;53.208;10.392;2023-04-06T07:36:06;8.23;;;5.05;;
10900;SDS011;5503;53.208;10.392;2023-04-06T07:38:33;9.68;;;5.05;;
10900;SDS011;5503;53.208;10.392;2023-04-06T07:41:00;10.67;;;5.50;;
10900;SDS011;5503;53.208;10.392;2023-04-06T07:43:30;9.07;;;4.78;;
10900;SDS011;5503;53.208;10.392;2023-04-06T07:45:57;8.55;;;5.28;;
10900;SDS011;5503;53.208;10.392;2023-04-06T07:48:25;12.38;;;6.30;;
10900;SDS011;5503;53.208;10.392;2023-04-06T07:50:59;9.45;;;4.90;;
10900;SDS011;5503;53.208;10.392;2023-04-06T07:53:27;10.43;;;5.30;;
10900;SDS011;5503;53.208;10.392;2023-04-06T07:55:55;9.88;;;5.35;;
10900;SDS011;5503;53.208;10.392;2023-04-06T07:58:22;8.85;;;4.85;;
10900;SDS011;5503;53.208;10.392;2023-04-06T08:00:51;9.38;;;4.97;;
10900;SDS011;5503;53.208;10.392;2023-04-06T08:03:19;17.60;;;5.05;;
10900;SDS011;5503;53.208;10.392;2023-04-06T08:05:50;7.30;;;3.97;;
10900;SDS011;5503;53.208;10.392;2023-04-06T08:08:18;10.07;;;5.32;;
10900;SDS011;5503;53.208;10.392;2023-04-06T08:10:46;12.48;;;5.03;;
10900;SDS011;5503;53.208;10.392;2023-04-06T08:13:13;7.70;;;4.47;;
10900;SDS011;5503;53.208;10.392;2023-04-06T08:15:41;8.50;;;4.53;;
10900;SDS011;5503;53.208;10.392;2023-04-06T08:18:10;7.67;;;4.43;;
10900;SDS011;5503;53.208;10.392;2023-04-06T08:20:37;9.07;;;4.72;;
10900;SDS011;5503;53.208;10.392;2023-04-06T08:23:04;11.90;;;5.13;;
10900;SDS011;5503;53.208;10.392;2023-04-06T08:25:34;8.13;;;4.75;;
10900;SDS011;5503;53.208;10.392;2023-04-06T08:28:02;7.88;;;4.78;;
10900;SDS011;5503;53.208;10.392;2023-04-06T08:30:29;7.97;;;4.50;;
10900;SDS011;5503;53.208;10.392;2023-04-06T08:32:57;8.02;;;4.50;;
10900;SDS011;5503;53.208;10.392;2023-04-06T08:35:27;7.38;;;4.15;;
10900;SDS011;5503;53.208;10.392;2023-04-06T08:37:54;8.77;;;4.50;;
10900;SDS011;5503;53.208;10.392;2023-04-06T08:40:21;8.02;;;4.43;;
10900;SDS011;5503;53.208;10.392;2023-04-06T08:42:49;6.10;;;3.40;;
10900;SDS011;5503;53.208;10.392;2023-04-06T08:45:20;8.55;;;4.50;;
10900;SDS011;5503;53.208;10.392;2023-04-06T08:47:48;5.93;;;3.47;;
10900;SDS011;5503;53.208;10.392;2023-04-06T08:50:17;7.45;;;4.30;;
10900;SDS011;5503;53.208;10.392;2023-04-06T08:52:47;8.05;;;4.18;;
10900;SDS011;5503;53.208;10.392;2023-04-06T08:55:14;7.03;;;3.57;;
10900;SDS011;5503;53.208;10.392;2023-04-06T08:57:42;7.15;;;3.72;;
10900;SDS011;5503;53.208;10.392;2023-04-06T09:00:10;10.27;;;5.25;;
10900;SDS011;5503;53.208;10.392;2023-04-06T09:02:38;9.70;;;4.47;;
10900;SDS011;5503;53.208;10.392;2023-04-06T09:05:07;9.68;;;4.72;;
10900;SDS011;5503;53.208;10.392;2023-04-06T09:07:35;8.07;;;4.10;;
10900;SDS011;5503;53.208;10.392;2023-04-06T09:10:04;7.88;;;4.38;;
10900;SDS011;5503;53.208;10.392;2023-04-06T09:12:32;7.20;;;3.78;;
10900;SDS011;5503;53.208;10.392;2023-04-06T09:15:00;11.85;;;4.22;;
10900;SDS011;5503;53.208;10.392;2023-04-06T09:17:28;8.82;;;4.60;;
10900;SDS011;5503;53.208;10.392;2023-04-06T09:19:57;7.03;;;3.60;;
10900;SDS011;5503;53.208;10.392;2023-04-06T09:22:24;8.10;;;4.13;;
10900;SDS011;5503;53.208;10.392;2023-04-06T09:24:53;8.75;;;4.13;;
10900;SDS011;5503;53.208;10.392;2023-04-06T09:27:31;6.97;;;4.40;;
10900;SDS011;5503;53.208;10.392;2023-04-06T09:30:06;9.82;;;3.97;;
10900;SDS011;5503;53.208;10.392;2023-04-06T09:32:44;7.90;;;4.07;;
10900;SDS011;5503;53.208;10.392;2023-04-06T09:35:12;7.75;;;3.85;;
10900;SDS011;5503;53.208;10.392;2023-04-06T09:37:39;6.55;;;3.83;;
10900;SDS011;5503;53.208;10.392;2023-04-06T09:40:07;10.32;;;5.15;;
10900;SDS011;5503;53.208;10.392;2023-04-06T09:42:36;8.50;;;4.80;;
10900;SDS011;5503;53.208;10.392;2023-04-06T09:45:03;8.77;;;4.70;;
10900;SDS011;5503;53.208;10.392;2023-04-06T09:47:31;9.95;;;5.07;;
10900;SDS011;5503;53.208;10.392;2023-04-06T09:49:59;9.73;;;4.95;;
10900;SDS011;5503;53.208;10.392;2023-04-06T09:52:27;8.25;;;4.93;;
10900;SDS011;5503;53.208;10.392;2023-04-06T09:54:59;11.95;;;4.57;;
10900;SDS011;5503;53.208;10.392;2023-04-06T09:57:30;8.03;;;4.13;;
10900;SDS011;5503;53.208;10.392;2023-04-06T10:00:04;10.38;;;5.10;;
10900;SDS011;5503;53.208;10.392;2023-04-06T10:02:38;8.48;;;4.80;;
10900;SDS011;5503;53.208;10.392;2023-04-06T10:05:13;8.52;;;4.65;;
10900;SDS011;5503;53.208;10.392;2023-04-06T10:07:44;8.48;;;4.93;;
10900;SDS011;5503;53.208;10.392;2023-04-06T10:10:12;9.00;;;5.03;;
10900;SDS011;5503;53.208;10.392;2023-04-06T10:12:41;11.00;;;5.07;;
10900;SDS011;5503;53.208;10.392;2023-04-06T10:15:12;7.70;;;4.32;;
10900;SDS011;5503;53.208;10.392;2023-04-06T10:17:39;7.95;;;4.35;;
10900;SDS011;5503;53.208;10.392;2023-04-06T10:20:07;9.32;;;4.85;;
10900;SDS011;5503;53.208;10.392;2023-04-06T10:22:39;10.43;;;4.63;;
10900;SDS011;5503;53.208;10.392;2023-04-06T10:25:10;10.25;;;4.70;;
10900;SDS011;5503;53.208;10.392;2023-04-06T10:27:37;10.77;;;5.25;;
10900;SDS011;5503;53.208;10.392;2023-04-06T10:30:05;8.77;;;5.00;;
10900;SDS011;5503;53.208;10.392;2023-04-06T10:32:35;9.45;;;4.85;;
10900;SDS011;5503;53.208;10.392;2023-04-06T10:35:07;10.20;;;5.27;;
10900;SDS011;5503;53.208;10.392;2023-04-06T10:37:49;10.32;;;5.40;;
10900;SDS011;5503;53.208;10.392;2023-04-06T10:40:18;9.73;;;4.72;;
10900;SDS011;5503;53.208;10.392;2023-04-06T10:42:46;11.27;;;4.63;;
10900;SDS011;5503;53.208;10.392;2023-04-06T10:45:20;9.88;;;5.35;;
10900;SDS011;5503;53.208;10.392;2023-04-06T10:47:49;10.20;;;5.07;;
10900;SDS011;5503;53.208;10.392;2023-04-06T10:50:18;7.97;;;4.50;;
10900;SDS011;5503;53.208;10.392;2023-04-06T10:52:46;12.30;;;5.28;;
10900;SDS011;5503;53.208;10.392;2023-04-06T10:55:14;10.43;;;4.78;;
10900;SDS011;5503;53.208;10.392;2023-04-06T10:57:41;11.85;;;5.25;;
10900;SDS011;5503;53.208;10.392;2023-04-06T11:00:11;8.73;;;4.90;;
10900;SDS011;5503;53.208;10.392;2023-04-06T11:02:39;10.20;;;5.15;;
10900;SDS011;5503;53.208;10.392;2023-04-06T11:05:08;9.40;;;5.10;;
10900;SDS011;5503;53.208;10.392;2023-04-06T11:07:39;9.23;;;4.38;;
10900;SDS011;5503;53.208;10.392;2023-04-06T11:10:07;10.15;;;5.35;;
10900;SDS011;5503;53.208;10.392;2023-04-06T11:12:34;9.97;;;5.17;;
10900;SDS011;5503;53.208;10.392;2023-04-06T11:15:02;11.00;;;5.97;;
10900;SDS011;5503;53.208;10.392;2023-04-06T11:17:31;9.60;;;5.32;;
10900;SDS011;5503;53.208;10.392;2023-04-06T11:19:58;9.85;;;5.05;;
10900;SDS011;5503;53.208;10.392;2023-04-06T11:22:27;8.07;;;4.78;;
10900;SDS011;5503;53.208;10.392;2023-04-06T11:25:04;9.97;;;4.30;;
10900;SDS011;5503;53.208;10.392;2023-04-06T11:27:32;8.75;;;5.25;;
10900;SDS011;5503;53.208;10.392;2023-04-06T11:29:59;10.52;;;5.25;;
10900;SDS011;5503;53.208;10.392;2023-04-06T11:32:27;8.18;;;4.80;;
10900;SDS011;5503;53.208;10.392;2023-04-06T11:34:54;9.70;;;5.05;;
10900;SDS011;5503;53.208;10.392;2023-04-06T11:37:22;10.63;;;6.00;;
10900;SDS011;5503;53.208;10.392;2023-04-06T11:39:54;9.52;;;5.47;;
10900;SDS011;5503;53.208;10.392;2023-04-06T11:42:22;10.60;;;5.72;;
10900;SDS011;5503;53.208;10.392;2023-04-06T11:44:50;11.20;;;5.72;;
10900;SDS011;5503;53.208;10.392;2023-04-06T11:47:18;9.57;;;5.53;;
10900;SDS011;5503;53.208;10.392;2023-04-06T11:49:47;11.10;;;5.90;;
10900;SDS011;5503;53.208;10.392;2023-04-06T11:52:15;10.35;;;5.15;;
10900;SDS011;5503;53.208;10.392;2023-04-06T11:54:45;11.73;;;5.38;;
10900;SDS011;5503;53.208;10.392;2023-04-06T11:57:13;10.75;;;6.32;;
10900;SDS011;5503;53.208;10.392;2023-04-06T11:59:41;12.05;;;6.43;;
10900;SDS011;5503;53.208;10.392;2023-04-06T12:02:09;12.60;;;5.93;;
10900;SDS011;5503;53.208;10.392;2023-04-06T12:04:37;10.98;;;5.32;;
10900;SDS011;5503;53.208;10.392;2023-04-06T12:07:04;13.25;;;7.82;;
10900;SDS011;5503;53.208;10.392;2023-04-06T12:09:32;11.40;;;6.60;;
10900;SDS011;5503;53.208;10.392;2023-04-06T12:12:02;10.77;;;5.65;;
10900;SDS011;5503;53.208;10.392;2023-04-06T12:14:29;12.67;;;6.73;;
10900;SDS011;5503;53.208;10.392;2023-04-06T12:16:57;13.25;;;6.43;;
10900;SDS011;5503;53.208;10.392;2023-04-06T12:19:24;13.10;;;6.75;;
10900;SDS011;5503;53.208;10.392;2023-04-06T12:21:51;12.82;;;6.28;;
10900;SDS011;5503;53.208;10.392;2023-04-06T12:24:19;11.27;;;6.35;;
10900;SDS011;5503;53.208;10.392;2023-04-06T12:26:47;10.80;;;6.10;;
10900;SDS011;5503;53.208;10.392;2023-04-06T12:29:15;12.75;;;7.13;;
10900;SDS011;5503;53.208;10.392;2023-04-06T12:31:42;11.80;;;6.43;;
10900;SDS011;5503;53.208;10.392;2023-04-06T12:34:10;12.45;;;6.78;;
10900;SDS011;5503;53.208;10.392;2023-04-06T12:36:37;11.13;;;6.30;;
10900;SDS011;5503;53.208;10.392;2023-04-06T12:39:05;10.57;;;6.30;;
10900;SDS011;5503;53.208;10.392;2023-04-06T12:41:32;12.27;;;6.15;;
10900;SDS011;5503;53.208;10.392;2023-04-06T12:43:59;11.70;;;5.57;;
10900;SDS011;5503;53.208;10.392;2023-04-06T12:46:29;10.18;;;5.82;;
10900;SDS011;5503;53.208;10.392;2023-04-06T12:48:56;12.13;;;6.78;;
10900;SDS011;5503;53.208;10.392;2023-04-06T12:51:24;11.90;;;6.87;;
10900;SDS011;5503;53.208;10.392;2023-04-06T12:53:53;12.45;;;6.72;;
10900;SDS011;5503;53.208;10.392;2023-04-06T12:56:21;12.85;;;6.88;;
10900;SDS011;5503;53.208;10.392;2023-04-06T12:58:49;10.30;;;6.00;;
10900;SDS011;5503;53.208;10.392;2023-04-06T13:01:17;11.93;;;6.47;;
10900;SDS011;5503;53.208;10.392;2023-04-06T13:03:46;12.20;;;6.30;;
10900;SDS011;5503;53.208;10.392;2023-04-06T13:06:13;13.95;;;7.10;;
10900;SDS011;5503;53.208;10.392;2023-04-06T13:08:40;12.55;;;6.55;;
10900;SDS011;5503;53.208;10.392;2023-04-06T13:11:08;11.48;;;6.60;;
10900;SDS011;5503;53.208;10.392;2023-04-06T13:13:35;20.30;;;6.80;;
10900;SDS011;5503;53.208;10.392;2023-04-06T13:16:03;13.13;;;6.07;;
10900;SDS011;5503;53.208;10.392;2023-04-06T13:18:33;12.23;;;7.10;;
10900;SDS011;5503;53.208;10.392;2023-04-06T13:21:03;11.60;;;6.55;;
10900;SDS011;5503;53.208;10.392;2023-04-06T13:23:30;11.25;;;6.85;;
10900;SDS011;5503;53.208;10.392;2023-04-06T13:25:58;10.88;;;7.50;;
10900;SDS011;5503;53.208;10.392;2023-04-06T13:28:26;10.40;;;6.07;;
10900;SDS011;5503;53.208;10.392;2023-04-06T13:30:54;11.05;;;6.63;;
10900;SDS011;5503;53.208;10.392;2023-04-06T13:33:21;14.40;;;6.65;;
10900;SDS011;5503;53.208;10.392;2023-04-06T13:35:48;11.68;;;6.70;;
10900;SDS011;5503;53.208;10.392;2023-04-06T13:38:17;18.38;;;6.57;;
10900;SDS011;5503;53.208;10.392;2023-04-06T13:40:44;10.70;;;6.03;;
10900;SDS011;5503;53.208;10.392;2023-04-06T13:43:11;12.10;;;6.55;;
10900;SDS011;5503;53.208;10.392;2023-04-06T13:45:39;11.75;;;5.82;;
10900;SDS011;5503;53.208;10.392;2023-04-06T13:48:07;10.13;;;6.50;;
10900;SDS011;5503;53.208;10.392;2023-04-06T13:50:34;10.35;;;5.97;;
10900;SDS011;5503;53.208;10.392;2023-04-06T13:53:01;12.80;;;5.97;;
10900;SDS011;5503;53.208;10.392;2023-04-06T13:55:30;10.55;;;6.65;;
10900;SDS011;5503;53.208;10.392;2023-04-06T13:57:57;10.68;;;6.13;;
10900;SDS011;5503;53.208;10.392;2023-04-06T14:00:24;10.25;;;6.35;;
10900;SDS011;5503;53.208;10.392;2023-04-06T14:02:53;13.05;;;6.95;;
10900;SDS011;5503;53.208;10.392;2023-04-06T14:05:20;11.57;;;6.10;;
10900;SDS011;5503;53.208;10.392;2023-04-06T14:07:48;12.38;;;6.10;;
10900;SDS011;5503;53.208;10.392;2023-04-06T14:10:16;10.52;;;5.90;;
10900;SDS011;5503;53.208;10.392;2023-04-06T14:12:47;11.10;;;6.13;;
10900;SDS011;5503;53.208;10.392;2023-04-06T14:15:14;11.88;;;6.20;;
10900;SDS011;5503;53.208;10.392;2023-04-06T14:17:41;11.73;;;5.77;;
10900;SDS011;5503;53.208;10.392;2023-04-06T14:20:09;11.02;;;5.65;;
10900;SDS011;5503;53.208;10.392;2023-04-06T14:22:40;9.82;;;5.88;;
10900;SDS011;5503;53.208;10.392;2023-04-06T14:25:08;12.15;;;5.95;;
10900;SDS011;5503;53.208;10.392;2023-04-06T14:27:36;10.63;;;5.72;;
10900;SDS011;5503;53.208;10.392;2023-04-06T14:30:05;10.17;;;6.07;;
10900;SDS011;5503;53.208;10.392;2023-04-06T14:32:33;14.77;;;6.18;;
10900;SDS011;5503;53.208;10.392;2023-04-06T14:35:01;7.20;;;4.43;;
10900;SDS011;5503;53.208;10.392;2023-04-06T14:37:28;11.15;;;6.70;;
10900;SDS011;5503;53.208;10.392;2023-04-06T14:39:55;12.40;;;6.38;;
10900;SDS011;5503;53.208;10.392;2023-04-06T14:42:23;10.90;;;5.87;;
10900;SDS011;5503;53.208;10.392;2023-04-06T14:44:50;12.00;;;6.55;;